Time;durP1;ratioP1;P1;durP2;ratioP2;P2;SDS_P1;SDS_P2;PMS_P1;PMS_P2;Temp;Humidity;BMP_temperature;BMP_pressure;BME280_temperature;BME280_humidity;BME280_pressure;Samples;Min_cycle;Max_cycle;Signal;HPM_P1;HPM_P2
2023/05/11 00:00:49;;;;;;;0.40;0.40;;;15.40;99.90;;;;;;4402203;32;20074;-74
2023/05/11 00:03:14;;;;;;;0.52;0.52;;;15.20;99.90;;;;;;4400246;32;20069;-74
2023/05/11 00:05:41;;;;;;;2.33;0.98;;;15.20;99.90;;;;;;4400380;32;20532;-75
2023/05/11 00:08:06;;;;;;;0.40;0.40;;;15.10;99.90;;;;;;4401512;32;20719;-74
2023/05/11 00:10:32;;;;;;;0.30;0.30;;;15.00;99.90;;;;;;4397915;32;20143;-74
2023/05/11 00:12:57;;;;;;;0.40;0.40;;;14.90;99.90;;;;;;4400213;32;20090;-73
2023/05/11 00:15:23;;;;;;;0.37;0.37;;;14.90;99.90;;;;;;4399300;32;20163;-74
2023/05/11 00:17:48;;;;;;;0.57;0.57;;;14.70;99.90;;;;;;4399197;32;20154;-74
2023/05/11 00:20:14;;;;;;;0.80;0.70;;;14.60;99.90;;;;;;4401834;32;20128;-74
2023/05/11 00:22:39;;;;;;;0.35;0.35;;;14.60;99.90;;;;;;4398485;32;20066;-74
2023/05/11 00:25:05;;;;;;;0.40;0.40;;;14.50;99.90;;;;;;4399540;32;20129;-74
2023/05/11 00:27:31;;;;;;;0.40;0.40;;;14.70;99.90;;;;;;4398239;32;20952;-74
2023/05/11 00:29:57;;;;;;;0.80;0.80;;;14.80;99.90;;;;;;4398166;32;20149;-74
2023/05/11 00:32:22;;;;;;;0.40;0.40;;;14.70;99.90;;;;;;4403391;32;20487;-74
2023/05/11 00:34:47;;;;;;;0.65;0.65;;;14.80;99.90;;;;;;4398665;32;20150;-74
2023/05/11 00:37:13;;;;;;;0.52;0.52;;;14.80;99.90;;;;;;4399502;32;20093;-74
2023/05/11 00:39:39;;;;;;;0.37;0.37;;;14.80;99.90;;;;;;4401214;32;20480;-74
2023/05/11 00:42:05;;;;;;;0.55;0.55;;;14.80;99.90;;;;;;4398706;32;20517;-74
2023/05/11 00:44:31;;;;;;;1.65;0.50;;;14.80;99.90;;;;;;4399513;32;20058;-74
2023/05/11 00:46:57;;;;;;;0.65;0.65;;;14.60;99.90;;;;;;4398944;32;20120;-74
2023/05/11 00:49:22;;;;;;;3.33;1.08;;;14.50;99.90;;;;;;4399585;32;20128;-74
2023/05/11 00:51:48;;;;;;;0.80;0.75;;;14.40;99.90;;;;;;4398967;32;20097;-73
2023/05/11 00:54:14;;;;;;;0.52;0.52;;;14.50;99.90;;;;;;4401205;32;20810;-74
2023/05/11 00:56:40;;;;;;;1.17;0.95;;;14.50;99.90;;;;;;4401537;32;21156;-75
2023/05/11 00:59:07;;;;;;;0.30;0.30;;;14.50;99.90;;;;;;4400534;32;20086;-74
2023/05/11 01:01:34;;;;;;;0.52;0.47;;;14.50;99.90;;;;;;4401995;32;20163;-74
2023/05/11 01:04:02;;;;;;;0.40;0.40;;;14.50;99.90;;;;;;4400594;32;20509;-74
2023/05/11 01:06:53;;;;;;;0.50;0.50;;;14.50;99.90;;;;;;4400997;32;20085;-74
2023/05/11 01:09:31;;;;;;;0.60;0.60;;;14.40;99.90;;;;;;4401564;32;20128;-73
2023/05/11 01:12:05;;;;;;;0.70;0.70;;;14.30;99.90;;;;;;4399727;32;20184;-74
2023/05/11 01:14:41;;;;;;;1.60;0.90;;;14.30;99.90;;;;;;4402726;32;20097;-74
2023/05/11 01:17:17;;;;;;;0.40;0.40;;;14.20;99.90;;;;;;4401191;32;20124;-74
2023/05/11 01:19:52;;;;;;;0.50;0.50;;;14.20;99.90;;;;;;4400613;32;20132;-74
2023/05/11 01:22:56;;;;;;;0.68;0.68;;;14.20;99.90;;;;;;4399831;32;20066;-74
2023/05/11 01:25:46;;;;;;;0.47;0.47;;;14.30;99.90;;;;;;4390292;32;20114;-74
2023/05/11 01:28:38;;;;;;;0.73;0.73;;;14.10;99.90;;;;;;4390299;32;20101;-73
2023/05/11 01:31:09;;;;;;;0.50;0.50;;;14.20;99.90;;;;;;4404286;32;20644;-74
2023/05/11 01:33:38;;;;;;;4.05;0.70;;;14.20;99.90;;;;;;4403268;32;20089;-74
2023/05/11 01:36:07;;;;;;;0.50;0.50;;;14.20;99.90;;;;;;4403581;32;20094;-74
2023/05/11 01:38:36;;;;;;;0.50;0.50;;;14.10;99.90;;;;;;4403680;32;20172;-73
2023/05/11 01:41:08;;;;;;;0.60;0.60;;;14.10;99.90;;;;;;4402206;32;20103;-74
2023/05/11 01:43:36;;;;;;;0.65;0.57;;;14.10;99.90;;;;;;4402835;32;20107;-76
2023/05/11 01:46:03;;;;;;;0.73;0.68;;;14.10;99.90;;;;;;4400759;32;20099;-74
2023/05/11 01:48:32;;;;;;;12.13;0.85;;;14.00;99.90;;;;;;4402874;32;20085;-76
2023/05/11 01:51:01;;;;;;;2.92;0.95;;;14.00;99.90;;;;;;4402037;32;20089;-75
2023/05/11 01:53:30;;;;;;;0.82;0.70;;;14.00;99.90;;;;;;4399789;32;20450;-75
2023/05/11 01:55:57;;;;;;;0.45;0.45;;;14.00;99.90;;;;;;4402944;32;20597;-75
2023/05/11 01:58:24;;;;;;;0.60;0.60;;;13.90;99.90;;;;;;4402134;32;20097;-76
2023/05/11 02:00:51;;;;;;;0.65;0.60;;;13.90;99.90;;;;;;4399840;32;20065;-75
2023/05/11 02:03:17;;;;;;;1.62;0.80;;;14.00;99.90;;;;;;4402540;32;20127;-76
2023/05/11 02:05:45;;;;;;;0.65;0.47;;;14.00;99.90;;;;;;4404886;32;20081;-76
2023/05/11 02:08:13;;;;;;;0.60;0.60;;;14.00;99.90;;;;;;4403479;32;20090;-76
2023/05/11 02:10:40;;;;;;;0.50;0.50;;;13.90;99.90;;;;;;4402238;32;20769;-75
2023/05/11 02:13:08;;;;;;;0.40;0.40;;;13.90;99.90;;;;;;4402002;32;20525;-75
2023/05/11 02:15:37;;;;;;;0.60;0.60;;;13.90;99.90;;;;;;4404429;32;20141;-75
2023/05/11 02:18:03;;;;;;;0.70;0.50;;;13.80;99.90;;;;;;4405342;32;20502;-75
2023/05/11 02:20:30;;;;;;;0.73;0.73;;;13.70;99.90;;;;;;4403958;32;20084;-76
2023/05/11 02:22:56;;;;;;;0.50;0.50;;;13.60;99.90;;;;;;4400825;32;20793;-75
2023/05/11 02:25:23;;;;;;;0.88;0.57;;;13.60;99.90;;;;;;4404124;32;20121;-75
2023/05/11 02:27:48;;;;;;;0.52;0.52;;;13.60;99.90;;;;;;4405395;32;20082;-75
2023/05/11 02:30:14;;;;;;;2.80;0.90;;;13.70;99.90;;;;;;4401040;32;20082;-75
2023/05/11 02:32:47;;;;;;;0.68;0.68;;;13.60;99.90;;;;;;4404616;32;20089;-76
2023/05/11 02:35:19;;;;;;;0.73;0.73;;;13.60;99.90;;;;;;4401162;32;20070;-76
2023/05/11 02:37:47;;;;;;;0.55;0.55;;;13.70;99.90;;;;;;4404032;32;20103;-75
2023/05/11 02:40:16;;;;;;;0.88;0.82;;;13.60;99.90;;;;;;4400913;32;20078;-75
2023/05/11 02:42:45;;;;;;;1.23;1.12;;;13.60;99.90;;;;;;4400641;32;20854;-75
2023/05/11 02:45:14;;;;;;;0.95;0.75;;;13.70;99.90;;;;;;4403380;32;20073;-76
2023/05/11 02:47:50;;;;;;;0.77;0.77;;;13.70;99.90;;;;;;4404318;32;20149;-76
2023/05/11 02:50:17;;;;;;;13.70;1.08;;;13.60;99.90;;;;;;4401060;32;20899;-76
2023/05/11 02:52:46;;;;;;;0.50;0.50;;;13.60;99.90;;;;;;4404499;32;20112;-75
2023/05/11 02:55:14;;;;;;;0.55;0.55;;;13.60;99.90;;;;;;4401961;32;20344;-75
2023/05/11 02:57:39;;;;;;;2.45;0.68;;;13.60;99.90;;;;;;4403731;32;20067;-73
2023/05/11 03:00:07;;;;;;;0.90;0.90;;;13.60;99.90;;;;;;4402426;32;20112;-73
2023/05/11 03:02:32;;;;;;;0.50;0.50;;;13.60;99.90;;;;;;4401096;32;20231;-75
2023/05/11 03:04:58;;;;;;;0.73;0.73;;;13.60;99.90;;;;;;4402601;32;20125;-76
2023/05/11 03:07:24;;;;;;;0.90;0.88;;;13.50;99.90;;;;;;4403397;32;20062;-76
2023/05/11 03:09:49;;;;;;;0.70;0.70;;;13.50;99.90;;;;;;4403538;32;20089;-76
2023/05/11 03:12:15;;;;;;;1.60;0.88;;;13.60;99.90;;;;;;4401478;32;20109;-75
2023/05/11 03:14:41;;;;;;;3.55;0.77;;;13.60;99.90;;;;;;4401595;32;20898;-74
2023/05/11 03:17:08;;;;;;;0.52;0.52;;;13.50;99.90;;;;;;4403654;32;20105;-75
2023/05/11 03:19:36;;;;;;;0.82;0.80;;;13.40;99.90;;;;;;4402670;32;20242;-76
2023/05/11 03:22:03;;;;;;;0.77;0.70;;;13.40;99.90;;;;;;4402396;32;20066;-76
2023/05/11 03:24:29;;;;;;;0.60;0.60;;;13.50;99.90;;;;;;4403145;32;20086;-76
2023/05/11 03:26:56;;;;;;;0.85;0.85;;;13.50;99.90;;;;;;4404457;32;20136;-75
2023/05/11 03:29:24;;;;;;;1.08;0.85;;;13.50;99.90;;;;;;4399971;32;20099;-76
2023/05/11 03:31:50;;;;;;;0.60;0.60;;;13.40;99.90;;;;;;4402705;32;20103;-75
2023/05/11 03:34:15;;;;;;;0.50;0.50;;;13.40;99.90;;;;;;4400272;32;20094;-75
2023/05/11 03:36:43;;;;;;;3.20;0.98;;;13.50;99.90;;;;;;4401852;32;20151;-75
2023/05/11 03:39:11;;;;;;;2.08;0.98;;;13.40;99.90;;;;;;4401213;32;20074;-75
2023/05/11 03:41:39;;;;;;;0.30;0.30;;;13.30;99.90;;;;;;4400870;32;20089;-75
2023/05/11 03:44:07;;;;;;;1.08;0.70;;;13.40;99.90;;;;;;4400618;32;20094;-75
2023/05/11 03:46:36;;;;;;;1.55;1.27;;;13.30;99.90;;;;;;4399026;32;20744;-74
2023/05/11 03:49:03;;;;;;;0.70;0.70;;;13.20;99.90;;;;;;4401036;32;20062;-75
2023/05/11 03:51:30;;;;;;;0.55;0.55;;;13.10;99.90;;;;;;4399424;32;20160;-75
2023/05/11 03:53:56;;;;;;;0.50;0.50;;;13.20;99.90;;;;;;4400084;32;20546;-75
2023/05/11 03:56:22;;;;;;;0.60;0.60;;;13.20;99.90;;;;;;4401631;32;20098;-75
2023/05/11 03:58:48;;;;;;;0.70;0.70;;;13.20;99.90;;;;;;4400294;32;20086;-75
2023/05/11 04:01:14;;;;;;;0.90;0.90;;;13.20;99.90;;;;;;4401072;32;20122;-75
2023/05/11 04:03:48;;;;;;;0.80;0.70;;;13.20;99.90;;;;;;4400683;32;20105;-75
2023/05/11 04:06:15;;;;;;;0.98;0.77;;;13.20;99.90;;;;;;4400427;32;20090;-75
2023/05/11 04:08:40;;;;;;;0.93;0.90;;;13.30;99.90;;;;;;4402268;32;20073;-75
2023/05/11 04:11:06;;;;;;;0.50;0.50;;;13.20;99.90;;;;;;4401698;32;20530;-75
2023/05/11 04:13:31;;;;;;;0.88;0.55;;;13.10;99.90;;;;;;4400001;32;20065;-75
2023/05/11 04:15:56;;;;;;;1.27;0.88;;;13.10;99.90;;;;;;4400220;32;20164;-75
2023/05/11 04:18:22;;;;;;;0.50;0.50;;;13.10;99.90;;;;;;4401552;32;20109;-75
2023/05/11 04:20:47;;;;;;;0.50;0.50;;;13.10;99.90;;;;;;4400259;32;20761;-75
2023/05/11 04:23:14;;;;;;;0.95;0.95;;;13.20;99.90;;;;;;4394519;32;20081;-75
2023/05/11 04:25:39;;;;;;;0.50;0.50;;;13.20;99.90;;;;;;4403518;32;20128;-75
2023/05/11 04:28:05;;;;;;;1.73;0.60;;;13.20;99.90;;;;;;4401301;32;20069;-75
2023/05/11 04:30:30;;;;;;;1.17;1.00;;;13.20;99.90;;;;;;4401802;32;20085;-75
2023/05/11 04:32:57;;;;;;;0.60;0.60;;;13.20;99.90;;;;;;4402305;32;20489;-75
2023/05/11 04:35:23;;;;;;;0.68;0.68;;;13.20;99.90;;;;;;4399937;32;20484;-75
2023/05/11 04:37:49;;;;;;;3.75;0.90;;;13.30;99.90;;;;;;4400112;32;20073;-75
2023/05/11 04:40:15;;;;;;;0.60;0.60;;;13.40;99.90;;;;;;4402695;32;20434;-76
2023/05/11 04:42:40;;;;;;;1.45;0.80;;;13.40;99.90;;;;;;4400900;32;20275;-74
2023/05/11 04:45:07;;;;;;;0.43;0.43;;;13.50;99.90;;;;;;4400814;32;20073;-75
2023/05/11 04:47:33;;;;;;;0.98;0.77;;;13.50;99.90;;;;;;4400878;32;20094;-75
2023/05/11 04:49:59;;;;;;;0.55;0.55;;;13.50;99.90;;;;;;4401658;32;20090;-75
2023/05/11 04:52:24;;;;;;;2.20;1.15;;;13.50;99.90;;;;;;4401321;32;21492;-75
2023/05/11 04:54:50;;;;;;;0.52;0.52;;;13.50;99.90;;;;;;4401992;32;20090;-75
2023/05/11 04:57:15;;;;;;;0.60;0.60;;;13.60;99.90;;;;;;4402053;32;20098;-75
2023/05/11 04:59:40;;;;;;;5.07;1.10;;;13.70;99.90;;;;;;4401162;32;20156;-75
2023/05/11 05:02:06;;;;;;;0.40;0.40;;;13.70;99.90;;;;;;4398238;32;20066;-75
2023/05/11 05:04:31;;;;;;;0.40;0.40;;;13.90;99.90;;;;;;4399459;32;20065;-75
2023/05/11 05:06:57;;;;;;;0.35;0.35;;;13.90;99.90;;;;;;4395918;32;20089;-75
2023/05/11 05:09:23;;;;;;;1.48;1.00;;;14.00;99.90;;;;;;4401287;32;20402;-75
2023/05/11 05:11:48;;;;;;;0.60;0.60;;;14.00;99.90;;;;;;4399065;32;20085;-75
2023/05/11 05:14:13;;;;;;;0.47;0.47;;;14.20;99.90;;;;;;4399359;32;20427;-75
2023/05/11 05:16:39;;;;;;;1.70;0.90;;;14.20;99.90;;;;;;4393885;32;20082;-75
2023/05/11 05:19:04;;;;;;;0.62;0.62;;;14.30;99.90;;;;;;4392113;32;20093;-75
2023/05/11 05:21:31;;;;;;;0.93;0.80;;;14.30;99.90;;;;;;4400237;32;20454;-75
2023/05/11 05:23:56;;;;;;;1.87;0.77;;;14.30;99.90;;;;;;4401867;32;20160;-75
2023/05/11 05:26:22;;;;;;;1.75;1.05;;;14.40;99.90;;;;;;4388830;32;20105;-75
2023/05/11 05:28:47;;;;;;;1.00;0.90;;;14.60;99.90;;;;;;4395976;32;20284;-75
2023/05/11 05:31:13;;;;;;;0.45;0.45;;;14.60;99.90;;;;;;4382552;32;20264;-75
2023/05/11 05:33:38;;;;;;;1.75;1.30;;;14.60;99.90;;;;;;4390544;32;20082;-75
2023/05/11 05:36:05;;;;;;;0.50;0.50;;;14.70;99.90;;;;;;4396182;32;21114;-75
2023/05/11 05:38:31;;;;;;;0.88;0.52;;;14.80;99.90;;;;;;4388687;32;20098;-77
2023/05/11 05:40:58;;;;;;;2.58;1.08;;;14.80;99.90;;;;;;4397167;32;20101;-75
2023/05/11 05:43:24;;;;;;;2.78;1.30;;;14.80;99.90;;;;;;4391155;32;20217;-75
2023/05/11 05:45:51;;;;;;;0.77;0.62;;;15.00;99.90;;;;;;4393835;32;20090;-75
2023/05/11 05:48:17;;;;;;;1.08;0.93;;;15.10;99.90;;;;;;4391295;32;20129;-74
2023/05/11 05:50:42;;;;;;;7.18;1.35;;;15.10;99.90;;;;;;4384254;32;20105;-75
2023/05/11 05:53:08;;;;;;;1.90;1.20;;;15.20;99.90;;;;;;4382990;32;20458;-75
2023/05/11 05:55:33;;;;;;;0.82;0.82;;;15.30;99.90;;;;;;4381299;32;20514;-75
2023/05/11 05:57:59;;;;;;;2.50;1.05;;;15.40;99.90;;;;;;4377790;32;20105;-74
2023/05/11 06:00:25;;;;;;;0.98;0.85;;;15.50;99.90;;;;;;4370364;32;20223;-74
2023/05/11 06:02:50;;;;;;;8.93;1.52;;;15.60;99.90;;;;;;4377701;32;20121;-74
2023/05/11 06:05:15;;;;;;;0.30;0.30;;;15.60;99.90;;;;;;4369149;32;20987;-74
2023/05/11 06:07:41;;;;;;;0.68;0.55;;;15.70;99.90;;;;;;4372300;32;20430;-74
2023/05/11 06:10:06;;;;;;;1.05;1.00;;;15.70;99.90;;;;;;4382330;32;20078;-74
2023/05/11 06:12:32;;;;;;;0.40;0.40;;;15.80;99.90;;;;;;4382184;32;21258;-74
2023/05/11 06:14:57;;;;;;;1.17;0.60;;;16.00;99.90;;;;;;4377268;32;20214;-75
2023/05/11 06:17:23;;;;;;;1.02;0.85;;;16.00;99.90;;;;;;4381122;32;20164;-74
2023/05/11 06:19:49;;;;;;;0.47;0.47;;;16.00;99.90;;;;;;4380100;32;20109;-74
2023/05/11 06:22:14;;;;;;;0.45;0.45;;;16.10;99.90;;;;;;4367496;32;20114;-74
2023/05/11 06:24:40;;;;;;;0.55;0.55;;;16.20;99.90;;;;;;4367282;32;20554;-74
2023/05/11 06:27:05;;;;;;;1.17;0.65;;;16.30;99.90;;;;;;4380423;32;20516;-74
2023/05/11 06:29:31;;;;;;;0.50;0.50;;;16.40;99.90;;;;;;4381171;32;20422;-74
2023/05/11 06:31:57;;;;;;;0.75;0.75;;;16.40;99.90;;;;;;4373996;32;20356;-74
2023/05/11 06:34:23;;;;;;;0.40;0.40;;;16.50;99.90;;;;;;4379714;32;20156;-73
2023/05/11 06:36:48;;;;;;;0.75;0.70;;;16.60;99.90;;;;;;4370719;32;20152;-74
2023/05/11 06:39:14;;;;;;;0.47;0.47;;;16.70;99.90;;;;;;4376414;32;20101;-76
2023/05/11 06:41:39;;;;;;;0.57;0.52;;;16.70;99.90;;;;;;4375773;32;20152;-73
2023/05/11 06:44:05;;;;;;;0.47;0.47;;;16.80;99.90;;;;;;4378353;32;20085;-73
2023/05/11 06:46:31;;;;;;;0.40;0.40;;;16.80;99.90;;;;;;4370766;32;20078;-73
2023/05/11 06:48:56;;;;;;;0.43;0.43;;;16.80;99.90;;;;;;4374044;32;20109;-71
2023/05/11 06:51:22;;;;;;;0.40;0.40;;;16.90;99.90;;;;;;4376618;32;20245;-72
2023/05/11 06:53:48;;;;;;;1.37;0.65;;;17.00;99.90;;;;;;4378737;32;20105;-72
2023/05/11 06:56:14;;;;;;;0.75;0.55;;;17.10;99.90;;;;;;4371497;32;20140;-73
2023/05/11 06:58:40;;;;;;;0.52;0.50;;;17.10;99.90;;;;;;4376656;32;20094;-75
2023/05/11 07:01:06;;;;;;;0.37;0.37;;;17.20;99.90;;;;;;4365759;32;20132;-74
2023/05/11 07:03:32;;;;;;;1.12;0.57;;;17.20;99.90;;;;;;4374069;32;20114;-74
2023/05/11 07:05:58;;;;;;;0.50;0.50;;;17.40;99.90;;;;;;4372272;32;20085;-73
2023/05/11 07:08:23;;;;;;;0.30;0.30;;;17.50;99.90;;;;;;4371351;32;20077;-73
2023/05/11 07:10:50;;;;;;;0.60;0.60;;;17.40;99.90;;;;;;4380015;32;20106;-74
2023/05/11 07:13:15;;;;;;;0.30;0.30;;;17.50;99.90;;;;;;4378911;32;20102;-72
2023/05/11 07:15:41;;;;;;;0.50;0.50;;;17.60;99.90;;;;;;4380155;32;20204;-73
2023/05/11 07:18:06;;;;;;;0.50;0.50;;;17.70;99.90;;;;;;4380263;32;20131;-72
2023/05/11 07:20:32;;;;;;;0.60;0.60;;;17.80;99.90;;;;;;4376651;32;20427;-72
2023/05/11 07:22:58;;;;;;;0.88;0.75;;;17.90;99.90;;;;;;4391147;32;20160;-72
2023/05/11 07:25:24;;;;;;;0.50;0.50;;;18.00;99.90;;;;;;4390610;32;20510;-73
2023/05/11 07:27:50;;;;;;;1.85;1.30;;;18.10;99.90;;;;;;4386015;32;20296;-73
2023/05/11 07:30:16;;;;;;;0.30;0.30;;;18.10;99.90;;;;;;4402282;32;20090;-73
2023/05/11 07:32:41;;;;;;;0.40;0.40;;;18.20;99.90;;;;;;4394801;32;21513;-73
2023/05/11 07:35:07;;;;;;;0.77;0.77;;;18.30;99.90;;;;;;4378458;32;20399;-73
2023/05/11 07:37:32;;;;;;;0.40;0.40;;;18.40;99.90;;;;;;4386035;32;20439;-75
2023/05/11 07:39:58;;;;;;;0.50;0.50;;;18.50;99.90;;;;;;4378869;32;20105;-73
2023/05/11 07:42:23;;;;;;;0.30;0.30;;;18.60;99.90;;;;;;4376269;32;20109;-74
2023/05/11 07:44:49;;;;;;;0.37;0.37;;;18.70;99.90;;;;;;4382485;32;20128;-73
2023/05/11 07:47:16;;;;;;;0.82;0.62;;;18.80;99.90;;;;;;4381384;32;20160;-73
2023/05/11 07:49:42;;;;;;;1.95;1.05;;;18.90;99.90;;;;;;4366617;32;20102;-72
2023/05/11 07:52:07;;;;;;;0.62;0.50;;;19.10;99.90;;;;;;4372287;32;20094;-73
2023/05/11 07:54:33;;;;;;;0.70;0.68;;;19.20;99.90;;;;;;4367928;32;20166;-73
2023/05/11 07:56:58;;;;;;;0.43;0.43;;;19.40;99.90;;;;;;4358167;32;20096;-73
2023/05/11 07:59:24;;;;;;;0.37;0.37;;;19.50;99.90;;;;;;4367895;32;20122;-73
2023/05/11 08:01:49;;;;;;;0.32;0.32;;;19.40;99.90;;;;;;4365457;32;20085;-73
2023/05/11 08:04:15;;;;;;;20.67;0.60;;;19.50;99.90;;;;;;4366532;32;20129;-72
2023/05/11 08:06:40;;;;;;;1.30;0.95;;;19.70;99.90;;;;;;4359324;32;20734;-74
2023/05/11 08:09:06;;;;;;;0.40;0.40;;;19.90;99.90;;;;;;4370771;32;20785;-73
2023/05/11 08:11:31;;;;;;;0.40;0.40;;;19.90;99.90;;;;;;4370450;32;20548;-74
2023/05/11 08:13:57;;;;;;;0.30;0.30;;;20.00;99.90;;;;;;4372270;32;20102;-74
2023/05/11 08:16:22;;;;;;;0.68;0.68;;;20.00;99.90;;;;;;4370281;32;20097;-73
2023/05/11 08:18:48;;;;;;;1.12;0.88;;;20.00;99.90;;;;;;4377208;32;20485;-73
2023/05/11 08:21:13;;;;;;;0.40;0.40;;;20.00;99.90;;;;;;4380465;32;20157;-74
2023/05/11 08:23:39;;;;;;;0.40;0.40;;;19.90;99.90;;;;;;4374135;32;20086;-73
2023/05/11 08:26:04;;;;;;;0.30;0.30;;;20.00;99.90;;;;;;4374410;32;20082;-74
2023/05/11 08:28:30;;;;;;;0.47;0.47;;;20.20;99.90;;;;;;4375082;32;20526;-75
2023/05/11 08:30:56;;;;;;;0.52;0.52;;;20.40;99.90;;;;;;4380170;32;20086;-74
2023/05/11 08:33:23;;;;;;;0.30;0.30;;;20.40;99.90;;;;;;4377794;32;20965;-73
2023/05/11 08:35:48;;;;;;;0.57;0.43;;;20.60;99.90;;;;;;4365513;32;21300;-73
2023/05/11 08:38:14;;;;;;;0.40;0.40;;;20.60;99.90;;;;;;4379857;32;20487;-74
2023/05/11 08:40:46;;;;;;;0.52;0.52;;;20.50;99.90;;;;;;4373999;32;20133;-75
2023/05/11 08:43:12;;;;;;;0.40;0.40;;;20.60;99.90;;;;;;4371606;32;20148;-75
2023/05/11 08:45:43;;;;;;;0.50;0.50;;;20.60;99.90;;;;;;4372869;32;20097;-74
2023/05/11 08:48:10;;;;;;;0.62;0.40;;;20.60;99.90;;;;;;4371292;32;20101;-75
2023/05/11 08:50:35;;;;;;;0.60;0.60;;;20.60;99.90;;;;;;4372541;32;20659;-75
2023/05/11 08:53:01;;;;;;;0.70;0.70;;;20.70;99.90;;;;;;4371703;32;20113;-74
2023/05/11 08:55:28;;;;;;;0.30;0.30;;;20.80;99.90;;;;;;4372055;32;20065;-74
2023/05/11 08:57:55;;;;;;;0.52;0.52;;;20.70;99.90;;;;;;4371741;32;20738;-75
2023/05/11 09:00:22;;;;;;;0.30;0.30;;;20.90;99.90;;;;;;4375799;32;20158;-74
2023/05/11 09:02:49;;;;;;;0.30;0.30;;;21.00;99.90;;;;;;4372030;32;20976;-75
2023/05/11 09:05:15;;;;;;;0.37;0.37;;;21.10;99.90;;;;;;4377364;32;20782;-74
2023/05/11 09:07:42;;;;;;;0.50;0.50;;;21.20;99.90;;;;;;4371667;32;20093;-75
2023/05/11 09:10:08;;;;;;;0.47;0.32;;;21.40;99.90;;;;;;4375444;32;20398;-75
2023/05/11 09:12:34;;;;;;;0.30;0.30;;;21.50;99.90;;;;;;4378617;32;20077;-75
2023/05/11 09:15:00;;;;;;;1.55;0.80;;;21.70;99.60;;;;;;4365570;32;20089;-75
2023/05/11 09:17:27;;;;;;;0.52;0.50;;;21.70;98.80;;;;;;4367181;32;20756;-75
2023/05/11 09:20:04;;;;;;;0.47;0.47;;;21.80;98.70;;;;;;4367792;32;20703;-75
2023/05/11 09:22:33;;;;;;;0.40;0.40;;;21.80;98.20;;;;;;4366666;32;20114;-74
2023/05/11 09:25:00;;;;;;;4.93;1.65;;;21.70;98.30;;;;;;4370305;32;20094;-76
2023/05/11 09:27:28;;;;;;;0.20;0.20;;;21.70;98.00;;;;;;4366315;32;20153;-76
2023/05/11 09:29:53;;;;;;;0.40;0.40;;;21.80;98.00;;;;;;4360454;32;21770;-75
2023/05/11 09:32:19;;;;;;;0.30;0.30;;;22.00;98.30;;;;;;4354331;32;20119;-75
2023/05/11 09:34:44;;;;;;;0.40;0.40;;;22.10;99.00;;;;;;4358117;32;20070;-75
2023/05/11 09:37:18;;;;;;;2.33;0.60;;;22.40;98.70;;;;;;4368239;32;20101;-76
2023/05/11 09:39:43;;;;;;;0.30;0.30;;;22.50;96.50;;;;;;4371839;32;20386;-75
2023/05/11 09:42:12;;;;;;;0.30;0.30;;;22.50;95.80;;;;;;4363322;32;20085;-76
2023/05/11 09:44:40;;;;;;;0.32;0.32;;;22.40;96.40;;;;;;4371038;32;20497;-76
2023/05/11 09:47:16;;;;;;;4.20;1.65;;;22.40;96.30;;;;;;4372480;32;21447;-75
2023/05/11 09:49:43;;;;;;;0.20;0.20;;;22.50;96.00;;;;;;4368909;32;20187;-76
2023/05/11 09:52:11;;;;;;;0.50;0.50;;;22.80;95.90;;;;;;4376188;32;20172;-74
2023/05/11 09:54:45;;;;;;;0.28;0.28;;;22.90;95.80;;;;;;4372440;32;20074;-74
2023/05/11 09:57:25;;;;;;;0.40;0.40;;;22.70;95.70;;;;;;4366865;32;20195;-74
2023/05/11 09:59:52;;;;;;;1.58;0.95;;;23.00;95.20;;;;;;4373820;32;20241;-74
2023/05/11 10:02:27;;;;;;;2.08;0.80;;;23.10;94.80;;;;;;4373768;32;20073;-74
2023/05/11 10:04:55;;;;;;;0.40;0.40;;;23.30;92.60;;;;;;4373568;32;20189;-75
2023/05/11 10:07:30;;;;;;;0.20;0.20;;;23.20;92.70;;;;;;4375930;32;20106;-76
2023/05/11 10:09:58;;;;;;;0.22;0.22;;;23.30;91.70;;;;;;4361611;32;20712;-76
2023/05/11 10:12:25;;;;;;;2.92;0.68;;;23.50;90.70;;;;;;4365175;32;20192;-76
2023/05/11 10:14:55;;;;;;;1.85;0.52;;;23.50;90.30;;;;;;4365934;32;20713;-76
2023/05/11 10:17:21;;;;;;;0.30;0.30;;;23.40;89.60;;;;;;4372820;32;20097;-77
2023/05/11 10:19:48;;;;;;;0.30;0.30;;;23.50;89.00;;;;;;4385388;32;20712;-78
2023/05/11 10:22:15;;;;;;;0.65;0.47;;;23.60;88.40;;;;;;4383535;32;20872;-74
2023/05/11 10:24:42;;;;;;;0.32;0.32;;;23.80;90.20;;;;;;4378810;32;20101;-74
2023/05/11 10:27:08;;;;;;;0.30;0.30;;;23.90;88.10;;;;;;4376742;32;20140;-74
2023/05/11 10:29:36;;;;;;;2.62;0.50;;;24.00;87.70;;;;;;4380151;32;20121;-74
2023/05/11 10:32:02;;;;;;;0.20;0.20;;;24.00;89.30;;;;;;4387177;32;20081;-74
2023/05/11 10:34:28;;;;;;;0.20;0.20;;;24.00;89.20;;;;;;4378370;32;20090;-75
2023/05/11 10:36:56;;;;;;;0.28;0.28;;;24.30;85.90;;;;;;4375529;32;20097;-74
2023/05/11 10:39:22;;;;;;;1.45;0.60;;;24.50;86.10;;;;;;4378244;32;20981;-74
2023/05/11 10:42:03;;;;;;;0.28;0.28;;;24.40;85.10;;;;;;4375578;32;20558;-73
2023/05/11 10:44:42;;;;;;;0.80;0.73;;;24.20;84.50;;;;;;4385749;32;20114;-73
2023/05/11 10:47:36;;;;;;;0.50;0.50;;;24.80;85.80;;;;;;4364699;32;20998;-72
2023/05/11 10:50:32;;;;;;;0.30;0.30;;;24.70;84.60;;;;;;4360905;32;20655;-72
2023/05/11 10:53:13;;;;;;;0.40;0.40;;;24.90;83.50;;;;;;4358002;32;20495;-73
2023/05/11 10:56:00;;;;;;;0.20;0.20;;;24.90;81.90;;;;;;4365485;32;20384;-75
2023/05/11 10:58:47;;;;;;;0.50;0.50;;;25.10;83.30;;;;;;4353478;32;20173;-73
2023/05/11 11:01:38;;;;;;;0.20;0.20;;;24.70;82.80;;;;;;4372870;32;20225;-76
2023/05/11 11:04:07;;;;;;;0.75;0.55;;;24.30;83.70;;;;;;4367596;32;20122;-77
2023/05/11 11:06:34;;;;;;;0.20;0.20;;;23.90;83.90;;;;;;4364155;32;20090;-75
2023/05/11 11:09:04;;;;;;;0.40;0.40;;;23.50;85.00;;;;;;4373802;32;21945;-74
2023/05/11 11:11:34;;;;;;;0.30;0.30;;;23.40;84.10;;;;;;4373528;32;20117;-75
2023/05/11 11:14:02;;;;;;;1.98;0.88;;;23.40;84.70;;;;;;4375757;32;20151;-74
2023/05/11 11:16:29;;;;;;;0.30;0.30;;;23.80;85.50;;;;;;4375240;32;20094;-74
2023/05/11 11:19:31;;;;;;;0.22;0.22;;;24.60;82.20;;;;;;4376089;32;20081;-75
2023/05/11 11:21:59;;;;;;;0.40;0.40;;;24.90;82.70;;;;;;4353039;32;20101;-74
2023/05/11 11:24:42;;;;;;;0.68;0.40;;;25.00;80.40;;;;;;4359428;32;21891;-74
2023/05/11 11:27:08;;;;;;;0.20;0.20;;;24.50;80.50;;;;;;4361529;32;20090;-75
2023/05/11 11:29:35;;;;;;;0.35;0.30;;;24.30;82.50;;;;;;4359734;32;20093;-74
2023/05/11 11:32:23;;;;;;;0.32;0.28;;;24.70;81.10;;;;;;4361197;32;20077;-74
2023/05/11 11:34:49;;;;;;;1.87;0.52;;;25.40;82.20;;;;;;4357423;32;20149;-74
2023/05/11 11:37:16;;;;;;;0.10;0.10;;;25.50;80.00;;;;;;4354293;32;20087;-74
2023/05/11 11:39:44;;;;;;;0.40;0.30;;;25.00;79.00;;;;;;4358215;32;20660;-75
2023/05/11 11:42:12;;;;;;;0.20;0.20;;;24.90;80.70;;;;;;4358839;32;20249;-74
2023/05/11 11:44:39;;;;;;;0.30;0.30;;;25.40;77.80;;;;;;4355083;32;120129;-75
2023/05/11 11:47:22;;;;;;;0.13;0.13;;;26.10;78.30;;;;;;4359206;32;21136;-74
2023/05/11 11:49:51;;;;;;;0.10;0.10;;;26.20;77.60;;;;;;4344226;32;20628;-75
2023/05/11 11:52:33;;;;;;;0.20;0.20;;;26.40;76.90;;;;;;4362133;32;20600;-74
2023/05/11 11:55:01;;;;;;;0.10;0.10;;;26.60;81.30;;;;;;4366366;32;20137;-75
2023/05/11 11:57:33;;;;;;;0.17;0.17;;;27.60;75.60;;;;;;4367543;32;20857;-73
2023/05/11 12:00:01;;;;;;;0.13;0.13;;;28.50;71.70;;;;;;4361583;32;20082;-74
2023/05/11 12:02:27;;;;;;;2.42;0.70;;;27.40;70.20;;;;;;4363716;32;20098;-73
2023/05/11 12:05:05;;;;;;;2.87;0.65;;;26.30;71.70;;;;;;4370055;32;20196;-72
2023/05/11 12:07:32;;;;;;;0.10;0.10;;;25.60;72.90;;;;;;4362144;32;20110;-73
2023/05/11 12:10:02;;;;;;;0.32;0.30;;;25.80;71.80;;;;;;4364512;32;20082;-73
2023/05/11 12:12:29;;;;;;;0.10;0.10;;;26.10;71.30;;;;;;4365975;32;20113;-73
2023/05/11 12:14:55;;;;;;;0.70;0.47;;;27.10;71.00;;;;;;4360902;32;20101;-74
2023/05/11 12:17:26;;;;;;;0.10;0.10;;;27.20;69.30;;;;;;4352249;32;20523;-75
2023/05/11 12:19:52;;;;;;;0.75;0.40;;;27.30;67.60;;;;;;4365254;32;20202;-74
2023/05/11 12:22:23;;;;;;;0.10;0.10;;;27.40;66.90;;;;;;4372553;32;20756;-75
2023/05/11 12:24:48;;;;;;;0.20;0.20;;;27.60;66.80;;;;;;4367396;32;20121;-73
2023/05/11 12:27:18;;;;;;;0.85;0.22;;;28.60;64.90;;;;;;4367898;32;20200;-72
2023/05/11 12:29:51;;;;;;;0.20;0.20;;;28.00;64.60;;;;;;4380032;32;20105;-74
2023/05/11 12:32:32;;;;;;;0.43;0.32;;;27.70;65.90;;;;;;4384792;32;20757;-71
2023/05/11 12:35:00;;;;;;;0.10;0.10;;;27.60;64.10;;;;;;4393909;32;20097;-71
2023/05/11 12:37:25;;;;;;;0.28;0.28;;;27.80;64.80;;;;;;4391456;32;20117;-71
2023/05/11 12:39:54;;;;;;;0.20;0.20;;;28.00;64.40;;;;;;4382210;32;20161;-73
2023/05/11 12:42:20;;;;;;;0.28;0.20;;;28.30;63.40;;;;;;4383990;32;20252;-73
2023/05/11 12:44:46;;;;;;;0.05;0.05;;;28.80;62.00;;;;;;4389635;32;20102;-72
2023/05/11 12:47:11;;;;;;;0.22;0.17;;;29.00;62.10;;;;;;4388307;32;20165;-73
2023/05/11 12:49:37;;;;;;;1.12;0.68;;;28.90;60.30;;;;;;4391115;32;20089;-72